Rickenbacker AFB, Ohio
Current Conditions -  °F | °C
As of 4:15 PM on Monday 22 Dec 2014 (Local Time) from KLCK Reporting Station
Clear Clear  
Wind Chill: 42°   Ceiling: Unl
Heat Index: 46°   Visibility: 10mi
Dew Point: 36°   Wind: 7mph
Humidity: 69%   Direction: 100°E
Pressure: 29.88"   Gusts: NA
Location:  39.8164°N, 82.9345°W
Report Text: KLCK 222115Z AUTO 10006KT 10SM CLR 08/02 A2988 RMK AO2 T00750021
Loading
Personal Weather Stations






























Interactive Weather Map New forecast layout! Learn more

10-Day Weather Forecast

Advertisements
Track Severe Weather on mobile